Time;durP1;ratioP1;P1;durP2;ratioP2;P2;SDS_P1;SDS_P2;PMS_P1;PMS_P2;Temp;Humidity;BMP_temperature;BMP_pressure;BME280_temperature;BME280_humidity;BME280_pressure;Samples;Min_cycle;Max_cycle;Signal;HPM_P1;HPM_P2
2022/12/19 00:01:19;;;;;;;21.80;9.93;;;;;;;-2.89;74.87;99274.91;4979079;28;20066;-83
2022/12/19 00:03:47;;;;;;;25.30;11.00;;;;;;;-2.89;74.56;99287.72;4974060;28;20045;-83
2022/12/19 00:06:17;;;;;;;24.75;12.10;;;;;;;-2.94;74.82;99269.19;4990656;28;20037;-82
2022/12/19 00:08:48;;;;;;;26.17;12.57;;;;;;;-2.84;74.29;99265.19;4972873;28;20058;-83
2022/12/19 00:11:16;;;;;;;27.20;12.77;;;;;;;-2.83;74.74;99277.13;4974064;28;20030;-83
2022/12/19 00:13:41;;;;;;;26.50;11.90;;;;;;;-2.76;74.29;99263.88;4991518;28;20123;-83
2022/12/19 00:16:16;;;;;;;23.10;12.23;;;;;;;-2.79;74.08;99273.47;4994139;28;20066;-83
2022/12/19 00:18:45;;;;;;;28.55;13.10;;;;;;;-2.83;74.45;99251.44;4991544;28;20366;-83
2022/12/19 00:21:19;;;;;;;21.55;11.25;;;;;;;-2.91;73.71;99264.72;4991920;28;20041;-82
2022/12/19 00:23:46;;;;;;;23.38;11.85;;;;;;;-3.07;74.35;99263.91;4994768;28;20034;-86
2022/12/19 00:26:25;;;;;;;26.55;13.00;;;;;;;-3.02;74.14;99244.78;4975826;28;20039;-86
2022/12/19 00:28:55;;;;;;;20.92;10.43;;;;;;;-3.00;74.09;99219.88;4995943;28;20038;-86
2022/12/19 00:31:22;;;;;;;23.70;11.07;;;;;;;-2.95;73.93;99217.03;4998923;28;20034;-86
2022/12/19 00:33:48;;;;;;;22.73;11.27;;;;;;;-3.04;73.74;99231.22;4992151;28;20638;-87
2022/12/19 00:36:25;;;;;;;26.15;12.25;;;;;;;-3.14;73.85;99260.88;4994922;28;20082;-87
2022/12/19 00:38:54;;;;;;;25.40;12.70;;;;;;;-3.21;73.80;99239.03;4990319;28;20094;-87
2022/12/19 00:41:32;;;;;;;27.45;12.85;;;;;;;-3.17;74.53;99262.78;4998829;28;20042;-87
2022/12/19 00:44:02;;;;;;;23.35;13.23;;;;;;;-3.03;74.02;99245.69;4999145;28;20053;-87
2022/12/19 00:46:30;;;;;;;30.33;13.20;;;;;;;-3.07;73.78;99263.91;4998115;28;20037;-86
2022/12/19 00:48:56;;;;;;;25.67;11.68;;;;;;;-3.11;73.65;99270.97;4993563;28;20142;-86
2022/12/19 00:51:25;;;;;;;26.92;13.05;;;;;;;-3.10;74.01;99264.94;4992838;28;20038;-87
2022/12/19 00:53:54;;;;;;;28.02;12.32;;;;;;;-3.07;74.00;99231.38;5003726;28;20512;-87
2022/12/19 00:56:29;;;;;;;33.40;14.43;;;;;;;-3.10;73.91;99264.94;5006312;28;20397;-86
2022/12/19 00:58:55;;;;;;;22.15;11.05;;;;;;;-3.11;74.35;99252.19;4984324;28;20044;-87
2022/12/19 01:01:28;;;;;;;27.50;10.98;;;;;;;-3.17;73.95;99250.78;4990604;28;20042;-86
2022/12/19 01:03:56;;;;;;;26.23;11.02;;;;;;;-3.31;74.45;99241.25;4994937;28;20029;-87
2022/12/19 01:06:22;;;;;;;30.40;12.57;;;;;;;-3.24;74.26;99237.47;4993498;28;20454;-87
2022/12/19 01:08:47;;;;;;;24.20;11.70;;;;;;;-3.11;74.42;99236.78;5001440;28;20109;-87
2022/12/19 01:11:13;;;;;;;21.10;10.52;;;;;;;-3.17;73.68;99240.53;4989352;28;20038;-86
2022/12/19 01:13:40;;;;;;;24.95;11.68;;;;;;;-3.05;74.21;99246.72;4989917;28;20046;-86
2022/12/19 01:16:12;;;;;;;31.40;13.80;;;;;;;-3.03;74.31;99253.41;4992936;28;20053;-87
2022/12/19 01:18:38;;;;;;;23.27;11.63;;;;;;;-3.08;73.34;99257.13;4995000;28;20045;-86
2022/12/19 01:21:09;;;;;;;24.90;12.10;;;;;;;-3.21;73.49;99230.50;4997219;28;20497;-88
2022/12/19 01:23:35;;;;;;;28.80;12.95;;;;;;;-3.16;74.39;99233.66;4993321;28;20937;-87
2022/12/19 01:26:02;;;;;;;25.98;12.15;;;;;;;-3.17;74.12;99232.81;4994473;28;20037;-87
2022/12/19 01:28:28;;;;;;;21.10;9.63;;;;;;;-3.26;73.84;99249.53;4996409;28;20089;-87
2022/12/19 01:30:56;;;;;;;15.20;7.57;;;;;;;-3.39;74.42;99242.59;4982920;28;20034;-87
2022/12/19 01:33:22;;;;;;;31.33;12.98;;;;;;;-3.25;74.82;99245.22;4998522;28;20717;-87
2022/12/19 01:35:48;;;;;;;30.25;12.90;;;;;;;-3.37;74.59;99217.69;5001380;28;20113;-87
2022/12/19 01:38:16;;;;;;;21.77;9.95;;;;;;;-3.28;74.72;99233.41;5005708;28;20527;-87
2022/12/19 01:40:54;;;;;;;27.63;12.57;;;;;;;-3.32;74.42;99231.09;5002904;28;20042;-87
2022/12/19 01:43:22;;;;;;;29.85;12.35;;;;;;;-3.26;75.00;99234.16;4998887;28;20034;-87
2022/12/19 01:45:56;;;;;;;23.90;11.40;;;;;;;-3.33;74.49;99226.88;4999793;28;20129;-87
2022/12/19 01:48:32;;;;;;;30.63;14.32;;;;;;;-3.17;74.14;99248.22;4998855;28;20473;-87
2022/12/19 01:51:15;;;;;;;27.27;11.85;;;;;;;-3.13;73.99;99238.59;4997420;28;20058;-87
2022/12/19 01:53:58;;;;;;;28.75;12.88;;;;;;;-3.11;73.85;99245.31;4998884;28;20035;-87
2022/12/19 01:56:31;;;;;;;24.58;11.65;;;;;;;-3.13;74.02;99251.41;5003485;28;20680;-87
2022/12/19 01:59:06;;;;;;;19.10;8.05;;;;;;;-3.26;74.00;99235.88;4997500;28;20092;-82
2022/12/19 02:01:33;;;;;;;31.15;13.30;;;;;;;-3.26;74.35;99228.19;4990615;28;20121;-83
2022/12/19 02:04:02;;;;;;;26.88;12.73;;;;;;;-3.17;74.46;99240.53;4973379;28;20030;-83
2022/12/19 02:06:30;;;;;;;35.45;14.73;;;;;;;-3.19;74.64;99254.31;4996101;28;20027;-83
2022/12/19 02:08:56;;;;;;;27.25;11.63;;;;;;;-3.29;74.59;99252.28;4975719;28;20394;-82
2022/12/19 02:11:21;;;;;;;27.02;11.90;;;;;;;-3.16;74.33;99251.59;4961151;28;20045;-83
2022/12/19 02:13:47;;;;;;;29.23;12.82;;;;;;;-3.13;74.03;99236.84;4993895;28;20482;-83
2022/12/19 02:16:33;;;;;;;29.55;13.43;;;;;;;-3.05;74.18;99242.41;4993911;28;20029;-83
2022/12/19 02:19:54;;;;;;;28.40;12.45;;;;;;;-3.05;73.86;99247.53;4984878;28;20516;-82
2022/12/19 02:22:29;;;;;;;;;;;;;;;-3.02;73.78;99236.25;4960109;28;20031;-82
2022/12/19 02:25:53;;;;;;;27.25;12.85;;;;;;;-3.11;74.19;99235.03;4984700;28;20360;-83
2022/12/19 02:29:19;;;;;;;29.50;12.40;;;;;;;-3.07;74.10;99241.63;4995901;28;20030;-82
2022/12/19 02:32:24;;;;;;;29.38;12.48;;;;;;;-3.15;74.79;99246.38;4972733;28;20049;-83
2022/12/19 02:35:18;;;;;;;28.70;13.88;;;;;;;-3.25;74.55;99229.84;4964079;28;20046;-83
2022/12/19 02:38:25;;;;;;;31.77;13.38;;;;;;;-3.06;73.99;99270.69;4991479;28;20051;-83
2022/12/19 02:41:04;;;;;;;31.30;13.93;;;;;;;-3.05;74.40;99267.25;4995516;28;20480;-82
2022/12/19 02:43:41;;;;;;;28.58;12.77;;;;;;;-3.08;74.67;99257.97;4995740;28;20038;-82
2022/12/19 02:46:08;;;;;;;31.35;14.07;;;;;;;-3.02;74.80;99267.06;4964132;28;20421;-83
2022/12/19 02:48:35;;;;;;;35.28;14.48;;;;;;;-3.10;74.53;99261.53;4979020;28;20352;-82
2022/12/19 02:51:00;;;;;;;29.98;13.68;;;;;;;-3.09;74.49;99243.47;4991672;28;20433;-82
2022/12/19 02:53:26;;;;;;;31.88;14.18;;;;;;;-3.02;74.56;99247.34;4994545;28;20030;-82
2022/12/19 02:56:25;;;;;;;32.63;13.13;;;;;;;-3.06;74.59;99237.34;4998657;28;20080;-82
2022/12/19 02:59:31;;;;;;;34.03;13.75;;;;;;;-3.10;74.84;99244.41;4990229;28;20058;-82
2022/12/19 03:02:30;;;;;;;32.50;13.48;;;;;;;-3.12;74.99;99241.09;4990197;28;20406;-82
2022/12/19 03:05:30;;;;;;;21.98;11.88;;;;;;;-3.12;74.79;99230.84;4996592;28;20239;-82
2022/12/19 03:08:20;;;;;;;23.83;11.68;;;;;;;-3.25;75.14;99234.97;4997208;28;20034;-83
2022/12/19 03:10:58;;;;;;;33.10;13.02;;;;;;;-3.33;75.98;99237.13;4994242;28;20038;-83
2022/12/19 03:13:37;;;;;;;30.73;14.27;;;;;;;-3.22;75.61;99223.72;4991964;28;20908;-82
2022/12/19 03:16:08;;;;;;;30.02;13.55;;;;;;;-3.36;75.95;99224.47;4976430;28;20038;-82
2022/12/19 03:18:34;;;;;;;30.70;13.15;;;;;;;-3.37;76.17;99217.69;4959438;28;20054;-83
2022/12/19 03:21:26;;;;;;;36.10;16.27;;;;;;;-3.28;76.59;99225.72;4977551;28;20525;-83
2022/12/19 03:23:54;;;;;;;31.23;13.93;;;;;;;-3.25;76.36;99214.44;4972318;28;20125;-83
2022/12/19 03:26:26;;;;;;;29.25;12.80;;;;;;;-3.18;75.36;99207.22;4998977;28;20033;-83
2022/12/19 03:29:07;;;;;;;33.72;14.43;;;;;;;-3.22;75.42;99198.06;4994321;28;20096;-83
2022/12/19 03:31:37;;;;;;;28.73;12.38;;;;;;;-3.19;74.68;99229.50;4979831;28;20414;-83
2022/12/19 03:34:23;;;;;;;30.33;13.05;;;;;;;-3.21;75.74;99213.38;4994805;28;20034;-82
2022/12/19 03:36:55;;;;;;;28.83;12.23;;;;;;;-3.19;75.55;99198.69;4995941;28;20487;-83
2022/12/19 03:39:24;;;;;;;28.75;13.93;;;;;;;-3.20;74.61;99211.63;4994242;28;20038;-83
2022/12/19 03:44:41;;;;;;;53.53;15.63;;;;;;;-3.35;75.30;99200.50;4997903;28;20494;-82
2022/12/19 03:47:25;;;;;;;43.90;16.75;;;;;;;-3.21;75.46;99210.81;4991814;28;20227;-83
2022/12/19 03:49:51;;;;;;;36.60;15.00;;;;;;;-3.30;75.21;99206.16;4996718;28;20040;-83
2022/12/19 03:52:30;;;;;;;36.80;13.75;;;;;;;-3.27;75.74;99213.72;4996550;28;20034;-83
2022/12/19 03:55:26;;;;;;;26.30;11.40;;;;;;;-3.24;75.99;99188.72;4985303;28;20094;-83
2022/12/19 03:58:04;;;;;;;32.40;14.77;;;;;;;-3.19;76.11;99178.16;4967991;28;20030;-83
2022/12/19 04:00:34;;;;;;;31.38;14.45;;;;;;;-3.18;76.05;99149.03;4992187;28;20055;-83
2022/12/19 04:03:02;;;;;;;38.28;15.00;;;;;;;-3.11;75.21;99146.97;4992161;28;20061;-83
2022/12/19 04:05:29;;;;;;;33.83;14.38;;;;;;;-3.13;75.32;99175.25;4990888;28;20056;-83
2022/12/19 04:08:02;;;;;;;33.63;14.50;;;;;;;-3.11;75.13;99149.53;4992060;28;20072;-82
2022/12/19 04:10:28;;;;;;;40.65;15.27;;;;;;;-3.09;75.38;99133.13;4967701;28;20037;-83
2022/12/19 04:13:06;;;;;;;39.53;16.48;;;;;;;-3.02;75.20;99159.25;4992989;28;20030;-83
2022/12/19 04:15:53;;;;;;;37.22;15.27;;;;;;;-2.94;75.17;99141.66;4990518;28;20038;-83
2022/12/19 04:18:19;;;;;;;32.03;13.32;;;;;;;-3.11;75.83;99165.75;4993507;28;20530;-83
2022/12/19 04:20:57;;;;;;;35.13;16.67;;;;;;;-3.05;76.34;99196.19;4994118;28;20118;-82
2022/12/19 04:23:35;;;;;;;37.60;14.77;;;;;;;-3.00;76.91;99219.88;4995012;28;20131;-83
2022/12/19 04:26:04;;;;;;;39.88;16.48;;;;;;;-2.91;75.94;99225.38;4992673;28;20060;-82
2022/12/19 04:28:41;;;;;;;38.75;14.93;;;;;;;-2.90;75.92;99203.94;4992910;28;20040;-83
2022/12/19 04:31:12;;;;;;;35.05;14.15;;;;;;;-2.97;75.95;99206.84;4992626;28;20039;-83
2022/12/19 04:33:38;;;;;;;;;;;;;;;-2.89;76.04;99203.00;4992730;28;20038;-83
2022/12/19 04:36:04;;;;;;;20.23;9.25;;;;;;;-2.93;76.23;99184.41;4992843;28;19917;-83
2022/12/19 04:38:29;;;;;;;35.28;13.63;;;;;;;-2.88;76.00;99207.22;4988714;28;20046;-83
2022/12/19 04:40:55;;;;;;;36.78;15.63;;;;;;;-2.89;76.82;99205.56;4989283;28;20038;-82
2022/12/19 04:43:21;;;;;;;33.38;14.02;;;;;;;-2.79;76.25;99196.44;4989436;28;20026;-82
2022/12/19 04:45:47;;;;;;;40.22;15.13;;;;;;;-2.81;76.35;99193.16;4989160;28;20574;-83
2022/12/19 04:48:12;;;;;;;30.23;13.50;;;;;;;-2.73;76.63;99203.78;4989432;28;20577;-83
2022/12/19 04:50:38;;;;;;;33.20;14.25;;;;;;;-2.84;77.19;99217.25;4957683;28;20034;-83
2022/12/19 04:53:05;;;;;;;29.75;15.23;;;;;;;-2.62;77.36;99169.78;4988883;28;20031;-83
2022/12/19 04:55:30;;;;;;;42.33;16.70;;;;;;;-2.69;76.69;99187.31;4988923;28;20052;-82
2022/12/19 04:57:56;;;;;;;30.10;14.75;;;;;;;-2.79;76.47;99189.56;4988646;28;20104;-83
2022/12/19 05:00:22;;;;;;;33.70;15.45;;;;;;;-2.74;76.88;99181.59;4985850;28;20613;-83
2022/12/19 05:02:47;;;;;;;34.28;15.95;;;;;;;-2.69;77.31;99202.72;4989649;28;20031;-83
2022/12/19 05:05:13;;;;;;;31.98;14.60;;;;;;;-2.75;77.14;99190.22;4992685;28;20113;-83
2022/12/19 05:07:39;;;;;;;37.42;15.43;;;;;;;-2.69;77.21;99179.59;4989810;28;20040;-83
2022/12/19 05:10:06;;;;;;;36.28;14.77;;;;;;;-2.65;77.23;99198.19;4973991;28;20089;-83
2022/12/19 05:12:31;;;;;;;34.25;16.17;;;;;;;-2.61;77.80;99179.97;4990737;28;20065;-83
2022/12/19 05:14:57;;;;;;;35.90;15.30;;;;;;;-2.55;77.81;99189.06;4991391;28;20599;-82
2022/12/19 05:17:22;;;;;;;35.47;14.00;;;;;;;-2.68;77.79;99170.97;4993701;28;20038;-83
2022/12/19 05:19:48;;;;;;;34.97;14.05;;;;;;;-2.55;78.02;99176.22;4971000;28;20077;-83
2022/12/19 05:22:14;;;;;;;38.47;15.43;;;;;;;-2.60;77.86;99175.66;4994720;28;20037;-83
2022/12/19 05:24:39;;;;;;;35.30;14.45;;;;;;;-2.63;78.45;99174.09;4992897;28;20103;-82
2022/12/19 05:27:06;;;;;;;35.20;15.27;;;;;;;-2.59;78.26;99178.13;4993650;28;20378;-83
2022/12/19 05:29:31;;;;;;;27.15;11.75;;;;;;;-2.67;78.13;99172.63;4997709;28;20505;-83
2022/12/19 05:31:57;;;;;;;30.92;15.15;;;;;;;-2.66;78.02;99168.31;4992994;28;20117;-83
2022/12/19 05:34:23;;;;;;;35.38;15.55;;;;;;;-2.42;78.15;99195.94;4992060;28;20073;-83
2022/12/19 05:36:49;;;;;;;38.17;14.25;;;;;;;-2.37;77.77;99202.56;4992425;28;20031;-84
2022/12/19 05:39:14;;;;;;;35.08;14.23;;;;;;;-2.46;77.74;99194.47;4973878;28;20046;-83
2022/12/19 05:41:40;;;;;;;36.58;15.60;;;;;;;-2.33;77.61;99188.63;4972210;28;20031;-83
2022/12/19 05:44:05;;;;;;;37.75;16.00;;;;;;;-2.30;77.72;99196.94;4974672;28;20584;-83
2022/12/19 05:46:31;;;;;;;33.90;15.55;;;;;;;-2.35;77.40;99175.84;4975869;28;20086;-83
2022/12/19 05:48:58;;;;;;;34.13;14.50;;;;;;;-2.40;77.72;99169.31;4976144;28;20520;-83
2022/12/19 05:51:24;;;;;;;36.47;16.00;;;;;;;-2.24;78.42;99194.00;4969933;28;20486;-83
2022/12/19 05:53:50;;;;;;;34.53;16.27;;;;;;;-2.38;78.54;99170.91;4972486;28;20045;-84
2022/12/19 05:56:19;;;;;;;35.80;16.08;;;;;;;-2.15;78.27;99192.66;4973537;28;20030;-83
2022/12/19 05:58:46;;;;;;;37.67;15.23;;;;;;;-2.17;78.26;99192.72;4972354;28;20046;-83
2022/12/19 06:01:20;;;;;;;31.13;14.23;;;;;;;-2.27;78.80;99181.38;4946655;28;20034;-83
2022/12/19 06:03:46;;;;;;;38.92;15.38;;;;;;;-2.26;79.11;99182.19;4971083;28;20076;-83
2022/12/19 06:06:19;;;;;;;35.00;15.52;;;;;;;-2.16;78.99;99191.81;4969541;28;20495;-83
2022/12/19 06:08:45;;;;;;;33.30;15.45;;;;;;;-2.36;79.37;99163.09;4971806;28;20022;-83
2022/12/19 06:11:13;;;;;;;45.22;18.85;;;;;;;-2.22;79.75;99181.91;4972724;28;20490;-83
2022/12/19 06:13:39;;;;;;;60.50;23.23;;;;;;;-2.23;79.55;99179.41;4962934;28;20050;-83
2022/12/19 06:16:09;;;;;;;49.83;19.25;;;;;;;-2.14;79.63;99188.34;4969595;28;20470;-83
2022/12/19 06:18:35;;;;;;;33.88;15.90;;;;;;;-2.21;79.65;99183.56;4957910;28;20050;-83
2022/12/19 06:21:06;;;;;;;36.97;17.92;;;;;;;-2.29;79.66;99169.50;4955358;28;20035;-83
2022/12/19 06:23:35;;;;;;;40.38;17.20;;;;;;;-2.23;79.96;99179.41;4972384;28;20125;-83
2022/12/19 06:26:04;;;;;;;36.20;14.90;;;;;;;-2.18;79.95;99188.50;4964494;28;20046;-82
2022/12/19 06:28:31;;;;;;;33.22;15.00;;;;;;;-2.24;80.08;99172.63;4972558;28;20510;-83
2022/12/19 06:30:59;;;;;;;35.88;16.67;;;;;;;-2.13;80.25;99183.09;4975841;28;20030;-83
2022/12/19 06:33:26;;;;;;;37.65;15.57;;;;;;;-2.14;80.77;99178.88;4938494;28;20035;-83
2022/12/19 06:36:17;;;;;;;26.13;12.55;;;;;;;-2.07;81.25;99177.56;4974535;28;20118;-83
2022/12/19 06:38:43;;;;;;;;;;;;;;;-2.02;81.33;99177.31;4989126;28;20471;-83
2022/12/19 06:43:58;;;;;;;32.38;15.55;;;;;;;-2.14;81.53;99165.19;4995602;28;20101;-83
2022/12/19 06:46:23;;;;;;;36.05;16.67;;;;;;;-2.16;82.04;99160.13;4997313;28;20521;-83
2022/12/19 06:48:50;;;;;;;32.40;15.05;;;;;;;-2.06;81.98;99168.94;4994575;28;20042;-83
2022/12/19 06:51:15;;;;;;;22.63;11.63;;;;;;;-2.17;82.46;99161.88;4995343;28;20394;-82
2022/12/19 06:53:41;;;;;;;40.20;17.15;;;;;;;-2.07;82.53;99172.44;4990443;28;20045;-83
2022/12/19 06:56:07;;;;;;;30.90;14.32;;;;;;;-2.05;82.92;99173.16;4992387;28;20090;-83
2022/12/19 06:58:33;;;;;;;31.92;15.23;;;;;;;-1.98;83.31;99176.16;4962246;28;20111;-83
2022/12/19 07:01:00;;;;;;;25.25;11.73;;;;;;;-2.06;83.29;99168.13;4992416;28;20433;-83
2022/12/19 07:03:36;;;;;;;40.55;15.65;;;;;;;-1.94;83.86;99165.63;4993055;28;20042;-83
2022/12/19 07:06:03;;;;;;;32.80;13.30;;;;;;;-2.05;83.23;99136.34;4991241;28;20057;-84
2022/12/19 07:08:29;;;;;;;19.45;9.23;;;;;;;-2.09;83.43;99140.03;4980824;28;20046;-83
2022/12/19 07:10:56;;;;;;;30.92;13.85;;;;;;;-1.96;83.75;99157.19;4993638;28;20046;-83
2022/12/19 07:13:22;;;;;;;35.45;14.80;;;;;;;-2.00;83.88;99152.31;4986473;28;20054;-84
2022/12/19 07:15:49;;;;;;;36.88;15.43;;;;;;;-1.86;83.67;99167.69;4981174;28;20683;-83
2022/12/19 07:18:15;;;;;;;32.20;14.10;;;;;;;-1.94;83.95;99165.63;4991061;28;20501;-84
2022/12/19 07:20:42;;;;;;;29.35;12.75;;;;;;;-1.93;84.17;99154.41;4971850;28;20033;-83
2022/12/19 07:23:19;;;;;;;31.48;13.52;;;;;;;-1.80;83.63;99154.50;4992898;28;20718;-84
2022/12/19 07:25:44;;;;;;;20.30;9.95;;;;;;;-2.00;84.23;99130.00;4995371;28;20374;-84
2022/12/19 07:28:10;;;;;;;34.30;14.23;;;;;;;-1.89;84.50;99161.03;4991009;28;20038;-84
2022/12/19 07:30:36;;;;;;;39.55;15.05;;;;;;;-1.95;84.32;99130.53;4997622;28;20382;-83
2022/12/19 07:33:01;;;;;;;32.75;13.77;;;;;;;-1.88;84.90;99152.38;4994318;28;20082;-82
2022/12/19 07:35:27;;;;;;;34.97;14.95;;;;;;;-1.90;84.86;99125.94;4992850;28;20049;-83
2022/12/19 07:37:52;;;;;;;31.40;14.63;;;;;;;-1.78;85.05;99128.66;4993668;28;20552;-83
2022/12/19 07:40:18;;;;;;;30.33;13.43;;;;;;;-1.70;85.13;99139.28;4978909;28;20046;-83
2022/12/19 07:42:44;;;;;;;24.55;12.52;;;;;;;-1.78;85.39;99137.22;4995459;28;20038;-83
2022/12/19 07:45:11;;;;;;;28.67;13.10;;;;;;;-1.78;85.28;99144.94;4998678;28;20497;-83
2022/12/19 07:47:36;;;;;;;29.73;13.73;;;;;;;-1.79;85.61;99132.16;4999262;28;20613;-83
2022/12/19 07:50:02;;;;;;;27.23;13.57;;;;;;;-1.82;85.32;99128.03;4990958;28;20108;-82
2022/12/19 07:52:28;;;;;;;28.77;12.55;;;;;;;-1.64;85.25;99141.47;4995155;28;20498;-82
2022/12/19 07:54:54;;;;;;;26.75;12.95;;;;;;;-1.85;85.06;99127.41;4993907;28;20038;-83
2022/12/19 07:57:19;;;;;;;34.15;15.23;;;;;;;-1.50;84.57;99144.00;4992265;28;20494;-84
2022/12/19 07:59:45;;;;;;;21.98;10.80;;;;;;;-1.69;84.83;99135.78;4990405;28;20085;-83
2022/12/19 08:02:12;;;;;;;33.13;15.23;;;;;;;-1.63;84.83;99148.25;4997931;28;20045;-83
2022/12/19 08:04:37;;;;;;;28.08;13.23;;;;;;;-1.45;84.45;99147.09;4990524;28;20042;-82
2022/12/19 08:07:03;;;;;;;33.03;14.10;;;;;;;-1.52;84.41;99135.56;4992300;28;20065;-82
2022/12/19 08:09:29;;;;;;;34.42;15.90;;;;;;;-1.40;84.15;99139.91;4989182;28;20022;-83
2022/12/19 08:11:56;;;;;;;37.42;15.20;;;;;;;-1.30;84.15;99152.19;4969543;28;20101;-82
2022/12/19 08:14:22;;;;;;;27.30;11.70;;;;;;;-1.40;83.73;99154.53;4989806;28;20046;-83
2022/12/19 08:16:47;;;;;;;33.65;13.35;;;;;;;-1.40;83.87;99159.69;4965087;28;20038;-82
2022/12/19 08:19:13;;;;;;;32.05;14.57;;;;;;;-1.27;83.95;99170.81;4989685;28;20044;-82
2022/12/19 08:21:38;;;;;;;35.08;14.90;;;;;;;-1.18;83.71;99166.84;4992827;28;20053;-82
2022/12/19 08:24:13;;;;;;;34.78;14.57;;;;;;;-1.04;83.68;99166.78;4988818;28;20037;-83
2022/12/19 08:26:39;;;;;;;31.42;14.15;;;;;;;-0.92;83.18;99158.25;4984512;28;20117;-82
2022/12/19 08:29:05;;;;;;;32.58;15.07;;;;;;;-0.80;82.40;99151.44;4987056;28;20074;-83
2022/12/19 08:31:31;;;;;;;32.58;14.88;;;;;;;-0.74;82.45;99147.66;4984393;28;20152;-83
2022/12/19 08:33:57;;;;;;;34.88;15.07;;;;;;;-0.66;82.29;99146.22;4987691;28;20073;-83
2022/12/19 08:36:24;;;;;;;37.25;15.45;;;;;;;-0.49;82.15;99163.09;4987591;28;20081;-83
2022/12/19 08:38:50;;;;;;;35.72;14.65;;;;;;;-0.51;81.21;99153.84;4996485;28;20176;-83
2022/12/19 08:41:17;;;;;;;31.73;12.98;;;;;;;-0.44;80.58;99143.00;4988662;28;20068;-83
2022/12/19 08:43:49;;;;;;;37.63;15.43;;;;;;;-0.38;81.09;99150.31;4991801;28;20042;-83
2022/12/19 08:46:17;;;;;;;31.83;15.13;;;;;;;-0.47;81.20;99150.13;4988446;28;20061;-83
2022/12/19 08:48:42;;;;;;;31.27;13.35;;;;;;;-0.43;80.75;99131.75;4974123;28;20064;-83
2022/12/19 08:51:12;;;;;;;33.90;15.43;;;;;;;-0.45;80.85;99133.63;4986890;28;20038;-83
2022/12/19 08:53:41;;;;;;;29.58;13.60;;;;;;;-0.66;81.47;99114.44;4987901;28;20121;-83
2022/12/19 08:56:13;;;;;;;36.92;16.88;;;;;;;-0.68;81.84;99109.41;4991322;28;20040;-82
2022/12/19 08:58:40;;;;;;;31.25;15.73;;;;;;;-0.43;81.29;99134.34;4987887;28;20566;-82
2022/12/19 09:01:12;;;;;;;32.95;14.90;;;;;;;-0.30;81.40;99145.47;4990012;28;20046;-83
2022/12/19 09:03:37;;;;;;;32.67;14.63;;;;;;;-0.29;81.41;99144.53;4975048;28;20066;-83
2022/12/19 09:06:06;;;;;;;33.22;16.27;;;;;;;-0.11;81.26;99141.63;4974566;28;20113;-83
2022/12/19 09:08:34;;;;;;;33.78;15.15;;;;;;;-0.19;80.90;99138.72;4989233;28;20470;-83
2022/12/19 09:11:08;;;;;;;32.78;16.17;;;;;;;-0.17;81.29;99134.31;4989190;28;20041;-83
2022/12/19 09:13:36;;;;;;;32.35;13.10;;;;;;;-0.19;80.84;99138.72;4988469;28;20140;-83
2022/12/19 09:16:09;;;;;;;31.35;12.43;;;;;;;-0.17;80.84;99149.78;4989456;28;20113;-83
2022/12/19 09:18:35;;;;;;;35.67;14.90;;;;;;;-0.06;80.83;99144.69;4957180;28;20030;-83
2022/12/19 09:21:00;;;;;;;30.98;13.90;;;;;;;0.02;81.69;99152.72;4987505;28;20053;-84
2022/12/19 09:23:27;;;;;;;31.50;12.50;;;;;;;-0.23;81.59;99142.47;4988142;28;20046;-83
2022/12/19 09:25:55;;;;;;;35.22;15.30;;;;;;;-0.03;81.39;99154.81;4989538;28;20113;-84
2022/12/19 09:28:21;;;;;;;35.90;15.23;;;;;;;-0.05;81.41;99136.84;4987445;28;20505;-83
2022/12/19 09:30:59;;;;;;;25.95;13.45;;;;;;;0.09;80.16;99153.94;4975078;28;20662;-83
2022/12/19 09:33:25;;;;;;;33.42;13.43;;;;;;;0.11;80.93;99136.59;4991168;28;20814;-83
2022/12/19 09:35:53;;;;;;;32.45;13.80;;;;;;;0.08;80.47;99151.47;4997429;28;20108;-83
2022/12/19 09:38:20;;;;;;;32.40;14.23;;;;;;;0.10;80.09;99140.09;4972428;28;20052;-83
2022/12/19 09:41:00;;;;;;;32.60;15.43;;;;;;;0.15;80.31;99143.19;4987476;28;20601;-83
2022/12/19 09:43:42;;;;;;;37.25;15.55;;;;;;;0.37;80.38;99152.00;4991038;28;20038;-83
2022/12/19 09:46:26;;;;;;;31.92;14.50;;;;;;;0.34;79.71;99147.06;4991645;28;20153;-83
2022/12/19 09:48:56;;;;;;;33.88;15.00;;;;;;;0.45;79.18;99145.34;4971765;28;20166;-84
2022/12/19 09:51:51;;;;;;;32.75;14.63;;;;;;;0.44;78.63;99135.97;4986610;28;20486;-84
2022/12/19 09:54:26;;;;;;;30.63;13.63;;;;;;;0.55;78.09;99161.00;4959261;28;20446;-83
2022/12/19 09:57:01;;;;;;;36.97;14.98;;;;;;;0.63;78.62;99157.88;4994770;28;20088;-83
2022/12/19 09:59:36;;;;;;;30.35;13.85;;;;;;;0.64;78.35;99155.16;4991051;28;20488;-83
2022/12/19 10:02:14;;;;;;;38.33;16.73;;;;;;;0.77;78.17;99155.09;4990994;28;20112;-83
2022/12/19 10:04:50;;;;;;;40.83;17.58;;;;;;;0.75;77.74;99129.41;4992567;28;20118;-84
2022/12/19 10:07:18;;;;;;;30.52;14.80;;;;;;;0.85;77.72;99132.16;4990971;28;20564;-84
2022/12/19 10:09:45;;;;;;;37.92;16.52;;;;;;;0.96;77.90;99131.31;5000357;28;20038;-83
2022/12/19 10:12:52;;;;;;;39.22;16.83;;;;;;;1.13;77.34;99135.25;4993674;28;20509;-83
2022/12/19 10:15:36;;;;;;;34.63;15.85;;;;;;;1.20;77.28;99131.25;4979742;28;20291;-83
2022/12/19 10:18:35;;;;;;;35.08;14.73;;;;;;;1.18;76.43;99144.31;4981970;28;20036;-82
2022/12/19 10:21:53;;;;;;;32.75;13.27;;;;;;;1.24;76.82;99137.84;4997431;28;20037;-83
2022/12/19 10:24:29;;;;;;;31.55;14.32;;;;;;;1.31;76.55;99145.03;4993262;28;20049;-83
2022/12/19 10:27:30;;;;;;;31.73;15.27;;;;;;;1.44;76.16;99134.63;5004710;28;20033;-84
2022/12/19 10:30:16;;;;;;;33.22;15.07;;;;;;;1.42;76.53;99140.81;4990143;28;20495;-84
2022/12/19 10:33:18;;;;;;;34.97;15.63;;;;;;;1.47;77.05;99125.78;4978851;28;20038;-85
2022/12/19 10:35:48;;;;;;;32.88;14.50;;;;;;;1.39;76.81;99125.56;4984067;28;20039;-84
2022/12/19 10:39:03;;;;;;;34.97;14.73;;;;;;;1.31;76.88;99108.84;4979598;28;20059;-84
2022/12/19 10:41:31;;;;;;;32.45;14.25;;;;;;;1.27;76.91;99080.78;4965027;28;20478;-84
2022/12/19 10:44:08;;;;;;;32.08;14.95;;;;;;;1.48;77.13;99120.50;4978327;28;20433;-85
2022/12/19 10:46:48;;;;;;;33.72;16.13;;;;;;;1.46;77.60;99112.03;4977875;28;20445;-85
2022/12/19 10:49:17;;;;;;;36.40;15.20;;;;;;;1.58;77.31;99110.28;4974176;28;20035;-83
2022/12/19 10:51:55;;;;;;;38.75;15.98;;;;;;;1.60;77.02;99108.38;4978028;28;20035;-84
2022/12/19 10:54:36;;;;;;;28.05;13.23;;;;;;;1.59;77.17;99110.16;4969791;28;20031;-83
2022/12/19 10:57:22;;;;;;;33.65;14.82;;;;;;;1.55;77.11;99113.09;4974220;28;20042;-84
2022/12/19 11:00:04;;;;;;;33.55;15.13;;;;;;;1.73;76.96;99111.66;4971249;28;20053;-83
2022/12/19 11:02:49;;;;;;;29.30;13.93;;;;;;;1.75;77.05;99116.75;4970164;28;20046;-83
2022/12/19 11:05:39;;;;;;;36.35;15.45;;;;;;;1.69;77.10;99102.53;4970805;28;20042;-83
2022/12/19 11:08:05;;;;;;;31.73;12.65;;;;;;;1.71;76.75;99100.63;4969168;28;20045;-83
2022/12/19 11:11:17;;;;;;;36.45;15.55;;;;;;;1.96;76.71;99093.53;4978315;28;20042;-82
2022/12/19 11:13:47;;;;;;;36.38;13.75;;;;;;;1.87;76.76;99075.22;4970404;28;20066;-83
2022/12/19 11:16:32;;;;;;;33.10;15.95;;;;;;;1.83;76.40;99073.00;4973066;28;20053;-83
2022/12/19 11:18:58;;;;;;;22.77;11.60;;;;;;;1.66;77.02;99058.78;4963560;28;20034;-83
2022/12/19 11:21:31;;;;;;;35.90;13.60;;;;;;;1.75;76.71;99065.84;4972878;28;20616;-83
2022/12/19 11:24:05;;;;;;;28.70;12.70;;;;;;;1.83;76.42;99063.47;4977991;28;20482;-84
2022/12/19 11:26:49;;;;;;;34.50;15.95;;;;;;;1.95;75.87;99066.03;4971352;28;20113;-83
2022/12/19 11:29:25;;;;;;;36.88;15.50;;;;;;;1.98;76.23;99068.34;4971624;28;20034;-82
2022/12/19 11:32:01;;;;;;;34.88;15.80;;;;;;;1.77;76.21;99019.97;4972207;28;20475;-83
2022/12/19 11:34:34;;;;;;;33.17;15.82;;;;;;;1.88;76.28;99035.47;4975249;28;20045;-83
2022/12/19 11:37:25;;;;;;;31.70;13.57;;;;;;;1.88;76.01;99032.06;4973962;28;20042;-83
2022/12/19 11:40:22;;;;;;;36.88;15.10;;;;;;;2.07;76.21;99028.84;4999707;28;20046;-82
2022/12/19 11:43:05;;;;;;;37.22;16.70;;;;;;;2.09;76.35;99032.09;4985613;28;20113;-83
2022/12/19 11:46:10;;;;;;;29.85;13.95;;;;;;;2.08;76.44;99025.28;4991565;28;20095;-83
2022/12/19 11:49:03;;;;;;;33.75;14.75;;;;;;;2.17;76.01;99024.56;4975349;28;20038;-83
2022/12/19 11:51:46;;;;;;;35.90;14.75;;;;;;;2.27;76.40;99030.63;4988671;28;20053;-83